createdAt,value
2022-11-07T00:01:23.892Z,5.57
2022-11-07T00:03:54.508Z,10.30
2022-11-07T00:06:21.278Z,4.97
2022-11-07T00:08:49.397Z,5.28
2022-11-07T00:11:15.954Z,9.43
2022-11-07T00:13:42.688Z,6.05
2022-11-07T00:16:11.122Z,7.07
2022-11-07T00:18:38.109Z,6.10
2022-11-07T00:21:07.403Z,5.40
2022-11-07T00:23:34.909Z,8.50
2022-11-07T00:26:13.168Z,5.80
2022-11-07T00:28:44.297Z,6.82
2022-11-07T00:31:13.048Z,8.15
2022-11-07T00:33:40.667Z,6.97
2022-11-07T00:36:08.128Z,6.20
2022-11-07T00:38:34.893Z,5.90
2022-11-07T00:41:04.402Z,6.57
2022-11-07T00:43:31.873Z,6.32
2022-11-07T00:46:02.368Z,10.43
2022-11-07T00:48:30.197Z,6.78
2022-11-07T00:50:57.086Z,7.82
2022-11-07T00:53:24.069Z,7.45
2022-11-07T00:55:50.736Z,7.25
2022-11-07T00:58:17.812Z,8.43
2022-11-07T01:00:44.524Z,9.23
2022-11-07T01:03:33.956Z,8.07
2022-11-07T01:06:03.006Z,7.90
2022-11-07T01:08:30.749Z,7.78
2022-11-07T01:10:58.138Z,8.00
2022-11-07T01:13:26.062Z,13.85
2022-11-07T01:15:53.240Z,11.60
2022-11-07T01:18:19.907Z,9.30
2022-11-07T01:20:46.987Z,17.73
2022-11-07T01:23:14.331Z,7.93
2022-11-07T01:25:41.555Z,9.20
2022-11-07T01:28:09.533Z,8.90
2022-11-07T01:30:45.176Z,9.85
2022-11-07T01:33:13.105Z,10.00
2022-11-07T01:35:40.399Z,7.22
2022-11-07T01:38:07.326Z,11.75
2022-11-07T01:40:54.105Z,8.23
2022-11-07T01:43:20.772Z,10.23
2022-11-07T01:45:48.100Z,10.18
2022-11-07T01:48:14.793Z,21.75
2022-11-07T01:50:42.031Z,9.18
2022-11-07T01:53:09.285Z,9.13
2022-11-07T01:55:36.538Z,9.68
2022-11-07T01:58:09.016Z,8.80
2022-11-07T02:00:37.354Z,8.50
2022-11-07T02:03:17.410Z,8.10
2022-11-07T02:05:50.614Z,8.48
2022-11-07T02:08:18.097Z,9.15
2022-11-07T02:10:44.834Z,9.73
2022-11-07T02:13:18.045Z,8.95
2022-11-07T02:15:44.792Z,8.43
2022-11-07T02:18:14.702Z,9.25
2022-11-07T02:20:41.489Z,8.48
2022-11-07T02:23:26.615Z,8.15
2022-11-07T02:25:54.252Z,8.55
2022-11-07T02:28:22.075Z,8.73
2022-11-07T02:30:48.759Z,8.95
2022-11-07T02:33:21.367Z,8.52
2022-11-07T02:35:50.635Z,9.25
2022-11-07T02:38:26.097Z,9.20
2022-11-07T02:41:03.240Z,7.75
2022-11-07T02:43:32.698Z,8.65
2022-11-07T02:46:01.964Z,8.18
2022-11-07T02:48:39.891Z,8.45
2022-11-07T02:51:06.513Z,9.10
2022-11-07T02:53:33.259Z,8.00
2022-11-07T02:55:59.917Z,9.95
2022-11-07T02:58:30.841Z,8.75
2022-11-07T03:01:02.982Z,8.57
2022-11-07T03:03:30.933Z,8.20
2022-11-07T03:05:57.667Z,8.02
2022-11-07T03:08:24.296Z,10.00
2022-11-07T03:10:50.956Z,9.65
2022-11-07T03:13:17.931Z,9.18
2022-11-07T03:15:44.731Z,13.65
2022-11-07T03:18:11.312Z,11.50
2022-11-07T03:20:38.054Z,11.35
2022-11-07T03:23:04.737Z,11.40
2022-11-07T03:25:31.365Z,10.75
2022-11-07T03:27:57.970Z,11.27
2022-11-07T03:30:24.825Z,11.32
2022-11-07T03:32:55.248Z,11.70
2022-11-07T03:35:22.572Z,10.57
2022-11-07T03:37:49.957Z,10.70
2022-11-07T03:40:17.400Z,11.02
2022-11-07T03:42:45.267Z,11.10
2022-11-07T03:45:14.014Z,11.75
2022-11-07T03:47:44.196Z,11.33
2022-11-07T03:50:14.209Z,10.77
2022-11-07T03:52:41.060Z,10.55
2022-11-07T03:55:08.420Z,11.55
2022-11-07T03:57:35.376Z,11.32
2022-11-07T04:00:02.126Z,11.00
2022-11-07T04:02:29.258Z,10.18
2022-11-07T04:04:56.142Z,10.55
2022-11-07T04:07:22.815Z,9.80
2022-11-07T04:09:49.451Z,10.20
2022-11-07T04:12:34.953Z,9.27
2022-11-07T04:15:30.621Z,10.40
2022-11-07T04:17:57.631Z,10.48
2022-11-07T04:20:24.677Z,10.75
2022-11-07T04:22:51.386Z,11.13
2022-11-07T04:25:17.973Z,10.35
2022-11-07T04:27:44.685Z,9.85
2022-11-07T04:30:19.910Z,10.18
2022-11-07T04:32:58.303Z,9.85
2022-11-07T04:35:27.776Z,9.82
2022-11-07T04:37:54.500Z,10.80
2022-11-07T04:40:21.724Z,10.48
2022-11-07T04:42:49.304Z,10.80
2022-11-07T04:45:17.273Z,10.68
2022-11-07T04:47:44.238Z,10.88
2022-11-07T04:50:14.288Z,10.65
2022-11-07T04:52:41.530Z,9.05
2022-11-07T04:55:10.496Z,9.32
2022-11-07T04:57:37.199Z,8.65
2022-11-07T05:00:04.631Z,9.60
2022-11-07T05:02:31.449Z,10.07
2022-11-07T05:04:58.142Z,8.80
2022-11-07T05:07:24.811Z,9.23
2022-11-07T05:09:51.722Z,9.30
2022-11-07T05:12:18.463Z,8.88
2022-11-07T05:14:45.041Z,7.95
2022-11-07T05:17:17.151Z,7.50
2022-11-07T05:19:43.808Z,8.02
2022-11-07T05:22:30.228Z,7.80
2022-11-07T05:24:56.954Z,7.63
2022-11-07T05:27:24.899Z,8.27
2022-11-07T05:29:51.866Z,7.13
2022-11-07T05:32:19.208Z,6.68
2022-11-07T05:34:45.904Z,7.32
2022-11-07T05:37:13.508Z,6.50
2022-11-07T05:39:40.198Z,6.95
2022-11-07T05:42:07.413Z,6.40
2022-11-07T05:44:36.718Z,6.72
2022-11-07T05:47:03.396Z,7.47
2022-11-07T05:49:30.088Z,6.18
2022-11-07T05:51:59.997Z,6.78
2022-11-07T05:54:28.101Z,6.15
2022-11-07T05:56:58.348Z,6.80
2022-11-07T05:59:25.570Z,6.20
2022-11-07T06:01:53.514Z,6.50
2022-11-07T06:04:20.472Z,5.60
2022-11-07T06:06:47.277Z,6.07
2022-11-07T06:09:14.001Z,5.38
2022-11-07T06:11:40.667Z,6.57
2022-11-07T06:14:07.485Z,6.82
2022-11-07T06:16:34.158Z,5.82
2022-11-07T06:19:00.806Z,6.72
2022-11-07T06:21:27.676Z,6.43
2022-11-07T06:23:54.621Z,6.32
2022-11-07T06:26:21.408Z,6.80
2022-11-07T06:28:48.039Z,6.82
2022-11-07T06:31:15.747Z,7.13
2022-11-07T06:33:42.458Z,6.10
2022-11-07T06:36:12.994Z,5.30
2022-11-07T06:38:41.295Z,4.55
2022-11-07T06:41:13.739Z,4.78
2022-11-07T06:43:43.643Z,5.25
2022-11-07T06:46:13.304Z,4.75
2022-11-07T06:51:09.922Z,4.32
2022-11-07T06:53:37.292Z,4.70
2022-11-07T06:56:06.594Z,4.75
2022-11-07T06:58:33.590Z,4.45
2022-11-07T07:01:03.899Z,3.80
2022-11-07T07:03:30.923Z,3.95
2022-11-07T07:06:05.056Z,3.67
2022-11-07T07:08:32.593Z,4.78
2022-11-07T07:11:04.460Z,4.00
2022-11-07T07:13:31.315Z,4.72
2022-11-07T07:15:58.720Z,4.90
2022-11-07T07:18:26.560Z,4.82
2022-11-07T07:21:01.552Z,4.38
2022-11-07T07:23:28.169Z,4.70
2022-11-07T07:25:55.007Z,4.63
2022-11-07T07:28:21.606Z,4.13
2022-11-07T07:30:51.813Z,5.47
2022-11-07T07:33:19.394Z,5.72
2022-11-07T07:35:46.193Z,5.57
2022-11-07T07:38:12.999Z,4.97
2022-11-07T07:40:39.664Z,5.85
2022-11-07T07:43:06.296Z,4.68
2022-11-07T07:45:32.944Z,4.28
2022-11-07T07:48:02.045Z,4.03
2022-11-07T07:50:28.935Z,4.25
2022-11-07T07:52:57.365Z,4.20
2022-11-07T07:55:24.619Z,4.78
2022-11-07T07:57:51.267Z,3.47
2022-11-07T08:00:18.290Z,4.63
2022-11-07T08:02:44.916Z,4.05
2022-11-07T08:05:13.227Z,4.47
2022-11-07T08:07:47.589Z,4.82
2022-11-07T08:10:40.347Z,4.38
2022-11-07T08:13:00.980Z,3.45
2022-11-07T08:15:27.648Z,4.07
2022-11-07T08:17:54.367Z,3.85
2022-11-07T08:20:20.998Z,4.03
2022-11-07T08:22:47.630Z,3.60
2022-11-07T08:25:14.209Z,3.65
2022-11-07T08:27:40.903Z,4.30
2022-11-07T08:30:10.671Z,4.60
2022-11-07T08:32:40.453Z,3.55
2022-11-07T08:35:07.252Z,3.92
2022-11-07T08:37:33.950Z,4.03
2022-11-07T08:40:00.511Z,4.13
2022-11-07T08:42:27.211Z,3.20
2022-11-07T08:44:53.842Z,3.83
2022-11-07T08:47:20.598Z,4.88
2022-11-07T08:49:47.208Z,5.25
2022-11-07T08:52:13.819Z,3.55
2022-11-07T08:54:40.810Z,3.78
2022-11-07T08:57:07.618Z,3.70
2022-11-07T08:59:34.934Z,4.10
2022-11-07T09:02:47.583Z,3.90
2022-11-07T09:04:48.288Z,3.75
2022-11-07T09:07:14.897Z,3.80
2022-11-07T09:09:41.523Z,3.78
2022-11-07T09:12:08.841Z,4.35
2022-11-07T09:14:35.625Z,3.35
2022-11-07T09:17:02.235Z,4.00
2022-11-07T09:19:28.935Z,3.97
2022-11-07T09:21:57.120Z,3.70
2022-11-07T09:24:23.811Z,4.10
2022-11-07T09:26:50.419Z,3.40
2022-11-07T09:29:17.162Z,3.60
2022-11-07T09:31:43.778Z,3.72
2022-11-07T09:34:10.444Z,3.42
2022-11-07T09:36:37.089Z,3.95
2022-11-07T09:39:04.145Z,3.60
2022-11-07T09:41:52.018Z,3.33
2022-11-07T09:44:42.911Z,3.78
2022-11-07T09:47:17.035Z,3.45
2022-11-07T09:49:50.834Z,3.35
2022-11-07T09:52:40.698Z,3.80
2022-11-07T09:55:25.769Z,3.65
2022-11-07T09:57:57.548Z,3.50
2022-11-07T10:00:24.290Z,3.53
2022-11-07T10:02:53.953Z,3.47
2022-11-07T10:08:14.488Z,2.95
2022-11-07T10:10:58.439Z,3.38
2022-11-07T10:13:44.021Z,3.28
2022-11-07T10:16:47.725Z,3.30
2022-11-07T10:19:29.055Z,3.25
2022-11-07T10:22:25.445Z,2.60
2022-11-07T10:25:04.035Z,2.72
2022-11-07T10:27:32.934Z,2.95
2022-11-07T10:30:01.324Z,2.53
2022-11-07T10:32:49.698Z,2.53
2022-11-07T10:35:27.187Z,2.60
2022-11-07T10:37:55.665Z,2.95
2022-11-07T10:40:23.826Z,2.65
2022-11-07T10:42:51.395Z,2.85
2022-11-07T10:45:18.390Z,2.60
2022-11-07T10:47:57.293Z,2.38
2022-11-07T10:50:25.650Z,2.88
2022-11-07T10:52:59.499Z,3.42
2022-11-07T10:55:27.558Z,2.60
2022-11-07T10:58:21.392Z,3.30
2022-11-07T11:01:24.100Z,2.55
2022-11-07T11:03:51.030Z,3.55
2022-11-07T11:06:17.773Z,3.53
2022-11-07T11:08:45.808Z,3.05
2022-11-07T11:11:23.940Z,3.78
2022-11-07T11:14:20.888Z,2.97
2022-11-07T11:16:51.662Z,3.30
2022-11-07T11:19:28.217Z,3.90
2022-11-07T11:21:57.342Z,3.50
2022-11-07T11:24:31.755Z,4.00
2022-11-07T11:27:12.800Z,5.15
2022-11-07T11:29:45.477Z,4.47
2022-11-07T11:32:21.393Z,4.57
2022-11-07T11:35:16.183Z,3.70
2022-11-07T11:37:47.662Z,3.72
2022-11-07T11:40:19.215Z,3.83
2022-11-07T11:42:55.190Z,3.90
2022-11-07T11:45:39.246Z,4.82
2022-11-07T11:48:26.693Z,3.95
2022-11-07T11:51:02.424Z,4.32
2022-11-07T11:53:29.347Z,3.72
2022-11-07T11:56:08.200Z,3.72
2022-11-07T11:58:57.368Z,4.03
2022-11-07T12:01:56.521Z,4.30
2022-11-07T12:04:45.612Z,4.45
2022-11-07T12:07:18.094Z,2.92
2022-11-07T12:10:08.286Z,3.58
2022-11-07T12:12:50.072Z,3.85
2022-11-07T12:15:41.294Z,5.25
2022-11-07T12:18:22.646Z,3.42
2022-11-07T12:21:22.618Z,4.25
2022-11-07T12:24:02.039Z,3.45
2022-11-07T12:26:46.701Z,3.33
2022-11-07T12:29:38.747Z,3.28
2022-11-07T12:32:21.647Z,3.47
2022-11-07T12:35:00.769Z,3.53
2022-11-07T12:37:55.847Z,3.53
2022-11-07T12:41:00.527Z,2.95
2022-11-07T12:44:04.798Z,2.70
2022-11-07T12:46:46.762Z,3.65
2022-11-07T12:49:41.441Z,3.08
2022-11-07T12:52:23.447Z,2.55
2022-11-07T12:55:01.863Z,3.08
2022-11-07T12:57:33.836Z,3.58
2022-11-07T13:00:22.377Z,3.45
2022-11-07T13:03:34.358Z,2.40
2022-11-07T13:06:36.327Z,2.72
2022-11-07T13:09:10.549Z,3.95
2022-11-07T13:12:00.239Z,3.38
2022-11-07T13:17:11.379Z,3.30
2022-11-07T13:19:43.560Z,2.72
2022-11-07T13:22:15.963Z,3.58
2022-11-07T13:25:05.406Z,3.47
2022-11-07T13:27:35.640Z,2.90
2022-11-07T13:30:17.085Z,2.67
2022-11-07T13:32:48.794Z,4.28
2022-11-07T13:35:27.218Z,3.35
2022-11-07T13:38:16.474Z,3.63
2022-11-07T13:40:53.142Z,3.08
2022-11-07T13:43:26.294Z,2.95
2022-11-07T13:45:57.689Z,3.33
2022-11-07T13:48:49.217Z,3.58
2022-11-07T13:51:28.964Z,3.40
2022-11-07T13:56:53.474Z,2.78
2022-11-07T13:59:41.685Z,3.63
2022-11-07T14:02:19.659Z,3.05
2022-11-07T14:05:19.123Z,2.85
2022-11-07T14:07:43.392Z,2.55
2022-11-07T14:10:38.017Z,3.70
2022-11-07T14:13:11.312Z,3.20
2022-11-07T14:15:47.828Z,3.33
2022-11-07T14:18:16.747Z,2.95
2022-11-07T14:20:52.282Z,3.10
2022-11-07T14:23:24.588Z,3.30
2022-11-07T14:26:18.904Z,2.80
2022-11-07T14:28:45.919Z,3.80
2022-11-07T14:31:21.349Z,2.88
2022-11-07T14:33:57.541Z,3.15
2022-11-07T14:36:27.248Z,2.65
2022-11-07T14:41:23.472Z,2.95
2022-11-07T14:43:51.087Z,3.75
2022-11-07T14:46:24.161Z,2.92
2022-11-07T14:48:52.198Z,3.03
2022-11-07T14:51:24.245Z,3.15
2022-11-07T14:53:58.708Z,3.40
2022-11-07T14:56:47.100Z,4.18
2022-11-07T14:59:15.945Z,3.50
2022-11-07T15:02:05.725Z,3.53
2022-11-07T15:04:36.531Z,3.35
2022-11-07T15:07:34.014Z,4.10
2022-11-07T15:10:14.389Z,3.40
2022-11-07T15:12:52.784Z,3.70
2022-11-07T15:15:22.173Z,4.15
2022-11-07T15:17:55.027Z,4.28
2022-11-07T15:20:24.079Z,3.20
2022-11-07T15:22:50.749Z,4.15
2022-11-07T15:25:28.497Z,3.42
2022-11-07T15:27:55.237Z,3.35
2022-11-07T15:30:32.184Z,4.10
2022-11-07T15:33:00.111Z,3.95
2022-11-07T15:35:43.555Z,3.53
2022-11-07T15:38:23.458Z,2.75
2022-11-07T15:40:51.518Z,3.80
2022-11-07T15:43:19.356Z,3.17
2022-11-07T15:45:50.574Z,4.32
2022-11-07T15:48:23.540Z,3.28
2022-11-07T15:50:50.790Z,4.10
2022-11-07T15:53:22.224Z,2.97
2022-11-07T15:55:52.264Z,3.50
2022-11-07T15:58:24.061Z,3.70
2022-11-07T16:00:51.977Z,3.70
2022-11-07T16:03:20.675Z,3.53
2022-11-07T16:05:49.222Z,2.90
2022-11-07T16:08:21.631Z,3.13
2022-11-07T16:10:54.723Z,5.13
2022-11-07T16:13:21.555Z,3.95
2022-11-07T16:15:57.006Z,4.43
2022-11-07T16:18:23.795Z,3.00
2022-11-07T16:20:51.002Z,3.08
2022-11-07T16:23:18.312Z,3.38
2022-11-07T16:25:48.227Z,3.95
2022-11-07T16:28:28.631Z,3.83
2022-11-07T16:30:56.155Z,3.60
2022-11-07T16:33:24.034Z,2.80
2022-11-07T16:35:53.026Z,3.05
2022-11-07T16:38:22.046Z,3.15
2022-11-07T16:40:49.204Z,3.55
2022-11-07T16:43:16.142Z,3.30
2022-11-07T16:45:48.704Z,3.50
2022-11-07T16:48:20.461Z,3.40
2022-11-07T16:50:47.094Z,3.42
2022-11-07T16:53:14.004Z,23.38
2022-11-07T16:55:47.179Z,6.32
2022-11-07T16:58:32.531Z,3.78
2022-11-07T17:01:05.181Z,2.95
2022-11-07T17:03:32.589Z,3.55
2022-11-07T17:06:01.528Z,3.25
2022-11-07T17:08:39.765Z,3.72
2022-11-07T17:11:06.802Z,3.63
2022-11-07T17:13:33.848Z,4.20
2022-11-07T17:16:00.601Z,3.05
2022-11-07T17:18:27.767Z,3.47
2022-11-07T17:20:55.048Z,3.03
2022-11-07T17:23:29.557Z,2.92
2022-11-07T17:26:00.286Z,3.03
2022-11-07T17:28:27.112Z,2.83
2022-11-07T17:30:53.783Z,3.92
2022-11-07T17:33:20.440Z,3.08
2022-11-07T17:35:47.624Z,5.18
2022-11-07T17:38:17.232Z,2.50
2022-11-07T17:40:44.464Z,3.55
2022-11-07T17:43:11.126Z,2.53
2022-11-07T17:45:38.086Z,2.75
2022-11-07T17:48:05.112Z,2.92
2022-11-07T17:50:32.114Z,2.80
2022-11-07T17:52:58.731Z,3.10
2022-11-07T17:55:25.552Z,3.55
2022-11-07T17:57:52.660Z,2.60
2022-11-07T18:00:22.717Z,3.13
2022-11-07T18:02:51.413Z,2.90
2022-11-07T18:05:20.002Z,3.53
2022-11-07T18:07:46.931Z,2.80
2022-11-07T18:10:15.453Z,2.97
2022-11-07T18:12:43.142Z,3.72
2022-11-07T18:15:12.827Z,2.97
2022-11-07T18:17:40.573Z,3.13
2022-11-07T18:20:08.704Z,3.70
2022-11-07T18:22:37.134Z,3.40
2022-11-07T18:25:08.271Z,4.18
2022-11-07T18:27:35.658Z,3.65
2022-11-07T18:30:03.169Z,4.00
2022-11-07T18:32:34.642Z,3.70
2022-11-07T18:35:04.804Z,3.30
2022-11-07T18:37:31.692Z,3.77
2022-11-07T18:39:58.396Z,4.45
2022-11-07T18:42:25.071Z,3.72
2022-11-07T18:44:52.120Z,3.17
2022-11-07T18:47:18.722Z,4.38
2022-11-07T18:49:45.389Z,4.43
2022-11-07T18:52:12.329Z,5.22
2022-11-07T18:54:39.089Z,4.70
2022-11-07T18:57:05.701Z,4.20
2022-11-07T18:59:32.859Z,3.85
2022-11-07T19:01:59.713Z,4.63
2022-11-07T19:04:26.373Z,5.38
2022-11-07T19:06:57.040Z,4.78
2022-11-07T19:09:29.659Z,6.63
2022-11-07T19:11:57.808Z,6.75
2022-11-07T19:14:25.391Z,6.55
2022-11-07T19:16:52.207Z,5.50
2022-11-07T19:19:19.010Z,5.18
2022-11-07T19:21:45.633Z,4.75
2022-11-07T19:24:13.199Z,4.82
2022-11-07T19:26:40.433Z,4.00
2022-11-07T19:29:09.770Z,4.35
2022-11-07T19:31:37.242Z,4.05
2022-11-07T19:34:04.739Z,5.18
2022-11-07T19:36:32.013Z,5.50
2022-11-07T19:38:58.607Z,5.05
2022-11-07T19:41:25.239Z,5.00
2022-11-07T19:43:51.887Z,5.18
2022-11-07T19:46:23.390Z,5.47
2022-11-07T19:48:50.998Z,5.25
2022-11-07T19:51:22.562Z,5.00
2022-11-07T19:53:57.022Z,5.35
2022-11-07T19:56:25.186Z,4.53
2022-11-07T19:58:52.192Z,5.07
2022-11-07T20:01:25.979Z,40.00
2022-11-07T20:03:53.817Z,27.63
2022-11-07T20:06:31.910Z,5.88
2022-11-07T20:09:00.499Z,5.72
2022-11-07T20:11:27.882Z,5.50
2022-11-07T20:14:00.224Z,5.85
2022-11-07T20:16:30.356Z,6.32
2022-11-07T20:18:56.965Z,6.43
2022-11-07T20:21:23.931Z,6.57
2022-11-07T20:23:53.589Z,6.55
2022-11-07T20:28:49.180Z,5.07
2022-11-07T20:31:18.977Z,4.85
2022-11-07T20:36:13.799Z,4.65
2022-11-07T20:38:41.559Z,4.82
2022-11-07T20:41:08.759Z,4.22
2022-11-07T20:43:36.384Z,5.72
2022-11-07T20:46:14.792Z,4.80
2022-11-07T20:48:41.932Z,5.43
2022-11-07T20:51:14.432Z,5.18
2022-11-07T20:53:46.725Z,5.68
2022-11-07T20:56:17.771Z,5.32
2022-11-07T20:58:44.838Z,4.85
2022-11-07T21:01:38.020Z,4.38
2022-11-07T21:04:15.305Z,4.90
2022-11-07T21:06:41.971Z,4.32
2022-11-07T21:09:08.683Z,4.78
2022-11-07T21:11:35.676Z,4.57
2022-11-07T21:14:02.553Z,4.45
2022-11-07T21:16:29.769Z,5.45
2022-11-07T21:18:56.788Z,4.40
2022-11-07T21:21:28.256Z,3.92
2022-11-07T21:23:57.224Z,5.65
2022-11-07T21:26:31.579Z,7.10
2022-11-07T21:28:59.098Z,7.05
2022-11-07T21:31:29.658Z,8.50
2022-11-07T21:33:56.784Z,9.55
2022-11-07T21:36:26.696Z,7.85
2022-11-07T21:38:58.378Z,6.22
2022-11-07T21:41:25.105Z,6.18
2022-11-07T21:43:52.045Z,6.13
2022-11-07T21:46:23.516Z,4.80
2022-11-07T21:48:51.234Z,5.80
2022-11-07T21:51:20.414Z,5.85
2022-11-07T21:53:47.731Z,5.07
2022-11-07T21:56:17.613Z,7.28
2022-11-07T21:58:44.720Z,5.28
2022-11-07T22:01:11.442Z,6.05
2022-11-07T22:04:04.299Z,5.00
2022-11-07T22:06:24.870Z,4.82
2022-11-07T22:08:51.618Z,5.85
2022-11-07T22:11:18.864Z,4.53
2022-11-07T22:13:45.797Z,4.70
2022-11-07T22:16:18.022Z,5.65
2022-11-07T22:18:45.636Z,4.30
2022-11-07T22:21:15.130Z,5.22
2022-11-07T22:23:41.956Z,4.70
2022-11-07T22:26:17.113Z,4.00
2022-11-07T22:28:46.015Z,5.03
2022-11-07T22:31:15.646Z,6.72
2022-11-07T22:33:43.080Z,3.97
2022-11-07T22:36:11.354Z,4.95
2022-11-07T22:38:38.933Z,4.57
2022-11-07T22:41:07.497Z,4.45
2022-11-07T22:43:34.850Z,4.45
2022-11-07T22:46:07.020Z,4.35
2022-11-07T22:48:34.395Z,4.00
2022-11-07T22:51:07.985Z,4.25
2022-11-07T22:53:35.107Z,4.68
2022-11-07T22:56:09.674Z,4.43
2022-11-07T22:58:36.829Z,4.22
2022-11-07T23:01:04.494Z,4.55
2022-11-07T23:03:32.562Z,5.40
2022-11-07T23:06:04.237Z,4.70
2022-11-07T23:08:33.196Z,4.03
2022-11-07T23:11:44.171Z,4.97
2022-11-07T23:14:00.636Z,4.25
2022-11-07T23:16:37.044Z,4.40
2022-11-07T23:19:07.479Z,4.75
2022-11-07T23:21:35.025Z,4.68
2022-11-07T23:24:02.588Z,4.45
2022-11-07T23:26:33.822Z,4.68
2022-11-07T23:29:11.654Z,4.40
2022-11-07T23:31:43.257Z,5.03
2022-11-07T23:34:10.000Z,4.38
2022-11-07T23:36:36.882Z,4.30
2022-11-07T23:39:08.198Z,5.60
2022-11-07T23:41:35.351Z,5.40
2022-11-07T23:44:02.547Z,5.60
2022-11-07T23:46:48.357Z,4.60
2022-11-07T23:49:33.685Z,4.78
2022-11-07T23:52:00.424Z,4.18
2022-11-07T23:54:45.885Z,4.68
2022-11-07T23:57:12.526Z,4.80
2022-11-07T23:59:57.910Z,4.35
